Terminal Aerodrome Forecast
Issued by NWS

Home | Current Version | Previous Version | Text Only | Print | Product List | Glossary On
Versions: 1 2 3 4 5 6 7 8 9 10 11 12 13 14 15 16 17 18 19
000
FTUS43 KGRB 192300
TAFMTW
TAF
KMTW 192334Z 2000/2024 04008KT P6SM SCT070 BKN100
     FM200200 07007KT P6SM -RA SCT015 OVC030
     FM200600 03007KT 6SM -RA BKN007 OVC012
      TEMPO 2006/2009 4SM -RA BR OVC007
     FM201200 31010KT P6SM -RA SCT009 OVC012
      TEMPO 2012/2015 6SM -RA BR BKN009
     FM201800 28015G25KT P6SM -RA SCT015 OVC025=

USA.gov is the U.S. government's official web portal to all federal, state and local government web resources and services.